createdAt,value
2022-12-22T00:01:05.329Z,8.10
2022-12-22T00:02:39.576Z,8.10
2022-12-22T00:03:59.914Z,8.10
2022-12-22T00:05:20.561Z,8.10
2022-12-22T00:06:41.056Z,8.10
2022-12-22T00:08:01.446Z,8.10
2022-12-22T00:09:21.936Z,8.10
2022-12-22T00:10:42.347Z,8.10
2022-12-22T00:12:04.394Z,8.10
2022-12-22T00:13:24.908Z,8.10
2022-12-22T00:14:45.410Z,8.10
2022-12-22T00:16:05.884Z,8.20
2022-12-22T00:17:42.050Z,8.20
2022-12-22T00:19:02.557Z,8.20
2022-12-22T00:20:34.647Z,8.10
2022-12-22T00:21:55.037Z,8.20
2022-12-22T00:23:15.610Z,8.20
2022-12-22T00:24:36.059Z,8.20
2022-12-22T00:25:56.357Z,8.20
2022-12-22T00:27:16.806Z,8.20
2022-12-22T00:28:37.122Z,8.20
2022-12-22T00:30:00.223Z,8.20
2022-12-22T00:31:20.610Z,8.20
2022-12-22T00:32:41.815Z,8.20
2022-12-22T00:34:02.380Z,8.30
2022-12-22T00:35:22.951Z,8.30
2022-12-22T00:36:43.648Z,8.30
2022-12-22T00:38:03.983Z,8.30
2022-12-22T00:39:32.551Z,8.30
2022-12-22T00:40:52.984Z,8.40
2022-12-22T00:42:13.468Z,8.40
2022-12-22T00:43:33.881Z,8.40
2022-12-22T00:44:54.217Z,8.40
2022-12-22T00:46:15.906Z,8.40
2022-12-22T00:47:46.533Z,8.40
2022-12-22T00:49:07.376Z,8.40
2022-12-22T00:50:28.550Z,8.40
2022-12-22T00:51:50.231Z,8.40
2022-12-22T00:53:10.584Z,8.50
2022-12-22T00:54:33.048Z,8.50
2022-12-22T00:55:53.535Z,8.50
2022-12-22T00:57:13.988Z,8.40
2022-12-22T00:58:37.285Z,8.50
2022-12-22T00:59:57.639Z,8.50
2022-12-22T01:01:18.167Z,8.50
2022-12-22T01:02:38.689Z,8.40
2022-12-22T01:03:58.975Z,8.50
2022-12-22T01:05:19.623Z,8.50
2022-12-22T01:06:39.977Z,8.50
2022-12-22T01:08:00.415Z,8.50
2022-12-22T01:09:20.761Z,8.50
2022-12-22T01:10:43.221Z,8.50
2022-12-22T01:12:03.841Z,8.50
2022-12-22T01:13:29.813Z,8.50
2022-12-22T01:14:50.289Z,8.60
2022-12-22T01:16:10.743Z,8.60
2022-12-22T01:17:31.180Z,8.60
2022-12-22T01:18:51.535Z,8.60
2022-12-22T01:20:11.917Z,8.50
2022-12-22T01:21:33.564Z,8.50
2022-12-22T01:22:54.444Z,8.60
2022-12-22T01:24:14.887Z,8.60
2022-12-22T01:25:37.923Z,8.60
2022-12-22T01:26:58.378Z,8.60
2022-12-22T01:28:19.040Z,8.60
2022-12-22T01:29:39.617Z,8.60
2022-12-22T01:31:00.282Z,8.60
2022-12-22T01:32:20.598Z,8.60
2022-12-22T01:33:41.023Z,8.60
2022-12-22T01:35:01.556Z,8.60
2022-12-22T01:36:22.042Z,8.60
2022-12-22T01:37:42.530Z,8.60
2022-12-22T01:39:02.977Z,8.60
2022-12-22T01:40:23.797Z,8.60
2022-12-22T01:41:44.885Z,8.60
2022-12-22T01:43:05.597Z,8.60
2022-12-22T01:44:36.352Z,8.60
2022-12-22T01:45:56.931Z,8.60
2022-12-22T01:47:48.546Z,8.60
2022-12-22T01:49:08.938Z,8.60
2022-12-22T01:50:29.433Z,8.70
2022-12-22T01:51:49.801Z,8.60
2022-12-22T01:53:13.512Z,8.70
2022-12-22T01:54:36.832Z,8.70
2022-12-22T01:55:57.185Z,8.70
2022-12-22T01:57:17.662Z,8.70
2022-12-22T01:58:50.843Z,8.70
2022-12-22T02:00:11.233Z,8.70
2022-12-22T02:01:31.815Z,8.70
2022-12-22T02:02:52.232Z,8.80
2022-12-22T02:04:12.581Z,8.80
2022-12-22T02:05:34.724Z,8.80
2022-12-22T02:07:00.421Z,8.80
2022-12-22T02:08:36.559Z,8.90
2022-12-22T02:10:26.993Z,8.90
2022-12-22T02:12:00.133Z,8.90
2022-12-22T02:13:42.290Z,8.90
2022-12-22T02:15:29.413Z,8.90
2022-12-22T02:16:58.459Z,8.90
2022-12-22T02:18:24.561Z,8.90
2022-12-22T02:20:08.957Z,8.90
2022-12-22T02:21:37.068Z,8.90
2022-12-22T02:23:33.184Z,8.90
2022-12-22T02:25:02.341Z,8.90
2022-12-22T02:26:40.804Z,9.00
2022-12-22T02:28:03.252Z,8.90
2022-12-22T02:29:24.791Z,8.90
2022-12-22T02:30:45.968Z,9.00
2022-12-22T02:32:06.573Z,9.00
2022-12-22T02:33:27.518Z,9.00
2022-12-22T02:34:47.960Z,9.00
2022-12-22T02:36:25.785Z,9.00
2022-12-22T02:37:59.540Z,9.00
2022-12-22T02:39:46.900Z,9.00
2022-12-22T02:41:07.332Z,9.10
2022-12-22T02:42:52.666Z,9.10
2022-12-22T02:44:37.856Z,9.00
2022-12-22T02:46:11.126Z,9.00
2022-12-22T02:47:53.282Z,9.00
2022-12-22T02:49:19.797Z,9.00
2022-12-22T02:50:44.187Z,9.00
2022-12-22T02:52:09.987Z,9.00
2022-12-22T02:53:32.476Z,9.10
2022-12-22T02:54:53.614Z,9.00
2022-12-22T02:56:20.942Z,9.00
2022-12-22T02:57:41.877Z,9.00
2022-12-22T02:59:02.191Z,9.00
2022-12-22T03:00:24.111Z,9.00
2022-12-22T03:01:44.547Z,9.10
2022-12-22T03:03:04.976Z,9.00
2022-12-22T03:04:25.278Z,9.00
2022-12-22T03:05:45.576Z,9.10
2022-12-22T03:07:05.835Z,9.10
2022-12-22T03:08:26.058Z,9.00
2022-12-22T03:09:46.399Z,9.00
2022-12-22T03:11:06.851Z,9.00
2022-12-22T03:12:27.317Z,9.10
2022-12-22T03:13:47.679Z,9.10
2022-12-22T03:15:08.028Z,9.10
2022-12-22T03:16:28.390Z,9.10
2022-12-22T03:17:48.564Z,9.00
2022-12-22T03:19:09.221Z,9.10
2022-12-22T03:20:29.707Z,9.00
2022-12-22T03:21:50.233Z,9.00
2022-12-22T03:23:10.742Z,9.10
2022-12-22T03:24:31.125Z,9.10
2022-12-22T03:25:52.104Z,9.10
2022-12-22T03:26:53.757Z,9.10
2022-12-22T03:28:01.025Z,9.10
2022-12-22T03:29:02.587Z,9.10
2022-12-22T03:30:04.971Z,9.10
2022-12-22T03:31:06.627Z,9.10
2022-12-22T03:32:08.227Z,9.10
2022-12-22T03:33:09.777Z,9.10
2022-12-22T03:34:11.362Z,9.10
2022-12-22T03:35:12.965Z,9.10
2022-12-22T03:36:14.567Z,9.10
2022-12-22T03:37:16.188Z,9.10
2022-12-22T03:38:17.897Z,9.10
2022-12-22T03:39:19.495Z,9.10
2022-12-22T03:40:21.106Z,9.10
2022-12-22T03:41:41.455Z,9.10
2022-12-22T03:43:01.654Z,9.00
2022-12-22T03:44:22.081Z,9.00
2022-12-22T03:45:42.618Z,9.00
2022-12-22T03:46:44.376Z,9.00
2022-12-22T03:47:46.013Z,9.00
2022-12-22T03:49:07.631Z,9.00
2022-12-22T03:50:09.519Z,9.00
2022-12-22T03:51:11.216Z,9.00
2022-12-22T03:52:12.815Z,9.00
2022-12-22T03:53:14.371Z,9.00
2022-12-22T03:54:19.082Z,9.00
2022-12-22T03:55:20.656Z,9.00
2022-12-22T03:56:22.460Z,9.00
2022-12-22T03:57:24.027Z,9.10
2022-12-22T03:58:25.637Z,9.10
2022-12-22T03:59:27.195Z,9.00
2022-12-22T04:00:28.758Z,9.10
2022-12-22T04:01:31.190Z,9.10
2022-12-22T04:02:32.931Z,9.10
2022-12-22T04:03:34.740Z,9.10
2022-12-22T04:04:36.393Z,9.10
2022-12-22T04:05:38.022Z,9.10
2022-12-22T04:06:39.987Z,9.20
2022-12-22T04:07:41.526Z,9.10
2022-12-22T04:08:43.108Z,9.10
2022-12-22T04:10:04.657Z,9.10
2022-12-22T04:11:24.758Z,9.00
2022-12-22T04:12:45.165Z,9.10
2022-12-22T04:13:46.757Z,9.10
2022-12-22T04:14:48.306Z,9.10
2022-12-22T04:15:49.865Z,9.10
2022-12-22T04:16:51.629Z,9.10
2022-12-22T04:17:53.850Z,9.10
2022-12-22T04:18:55.446Z,9.10
2022-12-22T04:19:57.014Z,9.10
2022-12-22T04:20:58.600Z,9.10
2022-12-22T04:22:00.852Z,9.10
2022-12-22T04:23:02.708Z,9.10
2022-12-22T04:24:04.744Z,9.10
2022-12-22T04:25:06.908Z,9.10
2022-12-22T04:26:08.841Z,9.10
2022-12-22T04:27:10.405Z,9.10
2022-12-22T04:28:11.999Z,9.10
2022-12-22T04:29:13.608Z,9.10
2022-12-22T04:30:15.891Z,9.00
2022-12-22T04:31:17.569Z,9.00
2022-12-22T04:32:19.207Z,9.00
2022-12-22T04:33:21.247Z,9.00
2022-12-22T04:34:22.824Z,9.00
2022-12-22T04:35:24.383Z,9.10
2022-12-22T04:36:25.927Z,9.10
2022-12-22T04:37:27.466Z,9.10
2022-12-22T04:38:29.138Z,9.10
2022-12-22T04:39:30.682Z,9.10
2022-12-22T04:40:32.257Z,9.10
2022-12-22T04:41:33.804Z,9.20
2022-12-22T04:42:35.399Z,9.20
2022-12-22T04:43:37.222Z,9.20
2022-12-22T04:44:38.837Z,9.20
2022-12-22T04:45:40.455Z,9.20
2022-12-22T04:46:42.049Z,9.20
2022-12-22T04:47:43.707Z,9.20
2022-12-22T04:49:25.494Z,9.20
2022-12-22T04:50:27.358Z,9.20
2022-12-22T04:51:29.368Z,9.20
2022-12-22T04:52:31.032Z,9.20
2022-12-22T04:53:33.062Z,9.20
2022-12-22T04:54:34.879Z,9.20
2022-12-22T04:55:36.500Z,9.20
2022-12-22T04:56:38.720Z,9.20
2022-12-22T04:57:41.236Z,9.20
2022-12-22T04:58:42.897Z,9.20
2022-12-22T04:59:44.559Z,9.10
2022-12-22T05:00:46.487Z,9.20
2022-12-22T05:01:48.575Z,9.20
2022-12-22T05:02:50.738Z,9.10
2022-12-22T05:03:52.392Z,9.20
2022-12-22T05:04:54.220Z,9.20
2022-12-22T05:05:55.764Z,9.20
2022-12-22T05:06:58.010Z,9.20
2022-12-22T05:07:59.583Z,9.20
2022-12-22T05:09:01.175Z,9.30
2022-12-22T05:10:04.642Z,9.30
2022-12-22T05:11:07.560Z,9.30
2022-12-22T05:12:28.216Z,9.30
2022-12-22T05:13:31.151Z,9.30
2022-12-22T05:14:32.722Z,9.30
2022-12-22T05:15:36.358Z,9.30
2022-12-22T05:16:38.350Z,9.30
2022-12-22T05:17:40.011Z,9.20
2022-12-22T05:18:43.665Z,9.30
2022-12-22T05:19:45.298Z,9.30
2022-12-22T05:20:47.765Z,9.30
2022-12-22T05:21:49.314Z,9.30
2022-12-22T05:22:51.070Z,9.30
2022-12-22T05:23:52.717Z,9.30
2022-12-22T05:24:54.342Z,9.30
2022-12-22T05:25:55.936Z,9.30
2022-12-22T05:26:57.541Z,9.30
2022-12-22T05:27:59.419Z,9.30
2022-12-22T05:29:00.977Z,9.30
2022-12-22T05:30:03.203Z,9.30
2022-12-22T05:31:07.080Z,9.30
2022-12-22T05:32:08.834Z,9.30
2022-12-22T05:33:10.401Z,9.30
2022-12-22T05:34:12.282Z,9.30
2022-12-22T05:35:14.421Z,9.30
2022-12-22T05:36:16.109Z,9.30
2022-12-22T05:37:17.685Z,9.30
2022-12-22T05:38:19.611Z,9.40
2022-12-22T05:39:21.203Z,9.30
2022-12-22T05:40:23.476Z,9.30
2022-12-22T05:41:25.428Z,9.30
2022-12-22T05:42:36.196Z,9.30
2022-12-22T05:43:38.375Z,9.30
2022-12-22T05:44:40.262Z,9.40
2022-12-22T05:45:41.870Z,9.30
2022-12-22T05:46:43.588Z,9.30
2022-12-22T05:47:48.199Z,9.30
2022-12-22T05:48:49.755Z,9.30
2022-12-22T05:49:51.307Z,9.30
2022-12-22T05:50:53.320Z,9.30
2022-12-22T05:51:55.895Z,9.30
2022-12-22T05:52:57.462Z,9.40
2022-12-22T05:53:59.413Z,9.40
2022-12-22T05:55:01.024Z,9.40
2022-12-22T05:56:02.767Z,9.40
2022-12-22T05:57:04.344Z,9.40
2022-12-22T05:58:05.988Z,9.40
2022-12-22T05:59:07.546Z,9.30
2022-12-22T06:00:12.684Z,9.40
2022-12-22T06:01:14.233Z,9.30
2022-12-22T06:02:16.119Z,9.40
2022-12-22T06:03:18.509Z,9.30
2022-12-22T06:04:20.465Z,9.30
2022-12-22T06:05:22.358Z,9.30
2022-12-22T06:06:23.905Z,9.30
2022-12-22T06:07:25.635Z,9.30
2022-12-22T06:08:27.758Z,9.30
2022-12-22T06:09:29.352Z,9.30
2022-12-22T06:10:30.951Z,9.30
2022-12-22T06:11:32.538Z,9.30
2022-12-22T06:12:34.321Z,9.40
2022-12-22T06:13:36.152Z,9.40
2022-12-22T06:14:37.749Z,9.40
2022-12-22T06:15:39.354Z,9.40
2022-12-22T06:16:41.402Z,9.40
2022-12-22T06:17:45.218Z,9.40
2022-12-22T06:18:47.396Z,9.40
2022-12-22T06:19:49.033Z,9.30
2022-12-22T06:20:53.931Z,9.40
2022-12-22T06:21:55.565Z,9.30
2022-12-22T06:22:57.267Z,9.30
2022-12-22T06:23:59.494Z,9.30
2022-12-22T06:25:01.208Z,9.30
2022-12-22T06:26:02.969Z,9.30
2022-12-22T06:27:04.523Z,9.30
2022-12-22T06:28:06.201Z,9.30
2022-12-22T06:29:07.797Z,9.30
2022-12-22T06:30:09.855Z,9.30
2022-12-22T06:31:11.549Z,9.30
2022-12-22T06:32:13.224Z,9.30
2022-12-22T06:33:15.386Z,9.20
2022-12-22T06:34:17.956Z,9.30
2022-12-22T06:35:19.523Z,9.20
2022-12-22T06:36:21.136Z,9.20
2022-12-22T06:37:22.681Z,9.20
2022-12-22T06:38:24.594Z,9.30
2022-12-22T06:39:26.185Z,9.30
2022-12-22T06:40:27.793Z,9.30
2022-12-22T06:41:48.116Z,9.30
2022-12-22T06:43:09.635Z,9.30
2022-12-22T06:44:11.640Z,9.30
2022-12-22T06:45:13.296Z,9.30
2022-12-22T06:46:14.880Z,9.30
2022-12-22T06:47:17.191Z,9.40
2022-12-22T06:48:19.200Z,9.40
2022-12-22T06:49:21.426Z,9.40
2022-12-22T06:50:22.973Z,9.30
2022-12-22T06:51:24.521Z,9.40
2022-12-22T06:52:26.093Z,9.40
2022-12-22T06:53:27.657Z,9.30
2022-12-22T06:54:29.313Z,9.30
2022-12-22T06:55:31.352Z,9.30
2022-12-22T06:56:32.955Z,9.30
2022-12-22T06:57:34.495Z,9.40
2022-12-22T06:58:36.063Z,9.30
2022-12-22T06:59:37.706Z,9.30
2022-12-22T07:00:39.260Z,9.30
2022-12-22T07:01:42.631Z,9.30
2022-12-22T07:02:44.539Z,9.30
2022-12-22T07:03:46.315Z,9.30
2022-12-22T07:04:48.201Z,9.30
2022-12-22T07:05:49.786Z,9.30
2022-12-22T07:06:51.371Z,9.30
2022-12-22T07:07:53.481Z,9.30
2022-12-22T07:08:55.144Z,9.30
2022-12-22T07:09:56.804Z,9.30
2022-12-22T07:10:58.361Z,9.30
2022-12-22T07:11:59.989Z,9.30
2022-12-22T07:13:18.943Z,9.30
2022-12-22T07:14:20.719Z,9.30
2022-12-22T07:15:22.679Z,9.30
2022-12-22T07:16:24.268Z,9.30
2022-12-22T07:17:25.854Z,9.40
2022-12-22T07:18:32.636Z,9.30
2022-12-22T07:19:34.552Z,9.30
2022-12-22T07:20:36.118Z,9.30
2022-12-22T07:21:37.811Z,9.40
2022-12-22T07:22:39.359Z,9.30
2022-12-22T07:23:41.789Z,9.30
2022-12-22T07:24:43.345Z,9.40
2022-12-22T07:25:45.179Z,9.30
2022-12-22T07:26:47.105Z,9.30
2022-12-22T07:27:48.726Z,9.30
2022-12-22T07:28:50.612Z,9.30
2022-12-22T07:29:52.561Z,9.30
2022-12-22T07:30:55.487Z,9.30
2022-12-22T07:31:57.574Z,9.30
2022-12-22T07:32:59.710Z,9.30
2022-12-22T07:34:01.501Z,9.30
2022-12-22T07:35:06.007Z,9.30
2022-12-22T07:36:12.295Z,9.30
2022-12-22T07:37:14.144Z,9.30
2022-12-22T07:38:15.968Z,9.30
2022-12-22T07:39:17.919Z,9.30
2022-12-22T07:40:20.487Z,9.40
2022-12-22T07:41:40.961Z,9.40
2022-12-22T07:42:45.594Z,9.40
2022-12-22T07:43:47.514Z,9.30
2022-12-22T07:44:49.070Z,9.30
2022-12-22T07:45:50.711Z,9.30
2022-12-22T07:46:52.442Z,9.30
2022-12-22T07:47:59.650Z,9.40
2022-12-22T07:49:19.942Z,9.40
2022-12-22T07:50:32.470Z,9.40
2022-12-22T07:51:35.986Z,9.40
2022-12-22T07:52:37.928Z,9.30
2022-12-22T07:53:40.577Z,9.30
2022-12-22T07:54:42.501Z,9.30
2022-12-22T07:55:44.502Z,9.30
2022-12-22T07:56:47.215Z,9.30
2022-12-22T07:57:49.275Z,9.30
2022-12-22T07:58:51.587Z,9.30
2022-12-22T07:59:53.926Z,9.30
2022-12-22T08:01:02.757Z,9.30
2022-12-22T08:02:04.417Z,9.30
2022-12-22T08:03:07.021Z,9.40
2022-12-22T08:04:10.170Z,9.30
2022-12-22T08:05:11.917Z,9.40
2022-12-22T08:06:13.519Z,9.40
2022-12-22T08:07:15.203Z,9.40
2022-12-22T08:08:16.811Z,9.40
2022-12-22T08:09:21.478Z,9.40
2022-12-22T08:10:23.405Z,9.40
2022-12-22T08:11:25.411Z,9.40
2022-12-22T08:12:27.935Z,9.40
2022-12-22T08:13:29.943Z,9.50
2022-12-22T08:14:31.543Z,9.40
2022-12-22T08:15:34.695Z,9.50
2022-12-22T08:16:36.324Z,9.50
2022-12-22T08:17:38.831Z,9.50
2022-12-22T08:18:41.237Z,9.50
2022-12-22T08:19:42.835Z,9.50
2022-12-22T08:20:51.536Z,9.40
2022-12-22T08:21:53.526Z,9.40
2022-12-22T08:22:57.023Z,9.50
2022-12-22T08:23:58.621Z,9.50
2022-12-22T08:25:00.344Z,9.50
2022-12-22T08:26:16.057Z,9.50
2022-12-22T08:27:25.914Z,9.50
2022-12-22T08:28:29.539Z,9.50
2022-12-22T08:29:40.305Z,9.50
2022-12-22T08:30:41.887Z,9.50
2022-12-22T08:31:44.314Z,9.50
2022-12-22T08:32:49.148Z,9.40
2022-12-22T08:33:51.179Z,9.50
2022-12-22T08:34:53.829Z,9.40
2022-12-22T08:36:01.223Z,9.40
2022-12-22T08:37:10.419Z,9.40
2022-12-22T08:38:13.945Z,9.40
2022-12-22T08:39:16.859Z,9.40
2022-12-22T08:40:22.561Z,9.40
2022-12-22T08:41:42.748Z,9.40
2022-12-22T08:42:44.701Z,9.40
2022-12-22T08:43:46.245Z,9.40
2022-12-22T08:44:53.057Z,9.40
2022-12-22T08:45:54.698Z,9.40
2022-12-22T08:46:58.297Z,9.40
2022-12-22T08:48:00.019Z,9.40
2022-12-22T08:49:01.642Z,9.40
2022-12-22T08:50:04.603Z,9.30
2022-12-22T08:51:06.327Z,9.30
2022-12-22T08:52:10.539Z,9.30
2022-12-22T08:53:45.327Z,9.40
2022-12-22T08:54:37.644Z,9.40
2022-12-22T08:55:39.222Z,9.30
2022-12-22T08:56:40.974Z,9.30
2022-12-22T08:57:42.626Z,9.30
2022-12-22T08:58:44.209Z,9.20
2022-12-22T08:59:48.323Z,9.20
2022-12-22T09:00:50.422Z,9.20
2022-12-22T09:01:52.543Z,9.20
2022-12-22T09:02:54.685Z,9.30
2022-12-22T09:03:56.366Z,9.20
2022-12-22T09:04:57.930Z,9.20
2022-12-22T09:06:03.579Z,9.20
2022-12-22T09:07:05.853Z,9.20
2022-12-22T09:08:08.128Z,9.20
2022-12-22T09:09:12.492Z,9.10
2022-12-22T09:10:15.271Z,9.20
2022-12-22T09:11:16.988Z,9.10
2022-12-22T09:12:19.101Z,9.10
2022-12-22T09:13:20.995Z,9.10
2022-12-22T09:14:22.665Z,9.00
2022-12-22T09:15:24.304Z,9.00
2022-12-22T09:16:28.563Z,9.00
2022-12-22T09:17:30.629Z,9.00
2022-12-22T09:18:32.464Z,9.00
2022-12-22T09:19:34.447Z,9.10
2022-12-22T09:20:36.053Z,9.00
2022-12-22T09:21:38.433Z,9.00
2022-12-22T09:22:40.364Z,9.00
2022-12-22T09:23:42.436Z,9.10
2022-12-22T09:24:44.366Z,9.00
2022-12-22T09:25:45.971Z,9.10
2022-12-22T09:26:47.994Z,9.00
2022-12-22T09:27:49.957Z,8.90
2022-12-22T09:28:51.918Z,8.90
2022-12-22T09:29:53.516Z,8.90
2022-12-22T09:30:55.426Z,9.00
2022-12-22T09:31:57.062Z,9.00
2022-12-22T09:32:58.688Z,8.90
2022-12-22T09:34:00.731Z,8.90
2022-12-22T09:35:02.303Z,8.90
2022-12-22T09:36:12.061Z,8.90
2022-12-22T09:37:15.816Z,8.80
2022-12-22T09:38:17.957Z,8.90
2022-12-22T09:39:25.005Z,8.80
2022-12-22T09:40:32.527Z,8.90
2022-12-22T09:41:52.206Z,8.90
2022-12-22T09:42:54.148Z,8.90
2022-12-22T09:43:56.621Z,8.90
2022-12-22T09:44:58.174Z,9.00
2022-12-22T09:46:01.224Z,9.00
2022-12-22T09:47:10.188Z,9.10
2022-12-22T09:48:13.957Z,9.10
2022-12-22T09:49:17.968Z,9.20
2022-12-22T09:50:30.512Z,9.20
2022-12-22T09:51:39.339Z,9.20
2022-12-22T09:52:48.356Z,9.20
2022-12-22T09:54:00.242Z,9.30
2022-12-22T09:55:03.468Z,9.30
2022-12-22T09:56:05.834Z,9.30
2022-12-22T09:57:11.819Z,9.30
2022-12-22T09:58:26.259Z,9.30
2022-12-22T09:59:30.120Z,9.30
2022-12-22T10:00:35.959Z,9.40
2022-12-22T10:02:04.785Z,9.40
2022-12-22T10:03:25.463Z,9.40
2022-12-22T10:04:41.585Z,9.50
2022-12-22T10:06:01.413Z,9.60
2022-12-22T10:07:33.254Z,9.50
2022-12-22T10:08:37.402Z,9.50
2022-12-22T10:09:50.150Z,9.40
2022-12-22T10:10:56.374Z,9.40
2022-12-22T10:12:01.344Z,9.40
2022-12-22T10:13:05.096Z,9.40
2022-12-22T10:14:06.660Z,9.50
2022-12-22T10:15:16.805Z,9.50
2022-12-22T10:16:25.641Z,9.50
2022-12-22T10:17:31.726Z,9.50
2022-12-22T10:18:35.340Z,9.50
2022-12-22T10:19:36.930Z,9.40
2022-12-22T10:20:39.784Z,9.40
2022-12-22T10:21:46.714Z,9.40
2022-12-22T10:22:50.621Z,9.40
2022-12-22T10:23:52.487Z,9.50
2022-12-22T10:24:54.607Z,9.50
2022-12-22T10:27:25.812Z,9.50
2022-12-22T10:28:36.597Z,9.60
2022-12-22T10:29:38.749Z,9.70
2022-12-22T10:30:41.169Z,9.70
2022-12-22T10:32:05.173Z,9.70
2022-12-22T10:33:10.052Z,9.70
2022-12-22T10:34:13.641Z,9.60
2022-12-22T10:35:15.346Z,9.80
2022-12-22T10:36:26.941Z,9.80
2022-12-22T10:37:35.195Z,9.90
2022-12-22T10:38:40.397Z,9.90
2022-12-22T10:39:42.197Z,9.90
2022-12-22T10:40:46.297Z,9.90
2022-12-22T10:41:50.053Z,9.90
2022-12-22T10:42:55.214Z,9.90
2022-12-22T10:44:01.357Z,9.80
2022-12-22T10:45:03.802Z,9.80
2022-12-22T10:46:06.067Z,9.80
2022-12-22T10:47:17.641Z,9.90
2022-12-22T10:48:44.668Z,9.90
2022-12-22T10:49:49.485Z,9.90
2022-12-22T10:50:51.620Z,9.90
2022-12-22T10:52:11.378Z,9.90
2022-12-22T10:53:13.129Z,9.90
2022-12-22T10:54:35.943Z,9.90
2022-12-22T10:55:39.305Z,9.90
2022-12-22T10:56:41.240Z,10.00
2022-12-22T10:57:42.846Z,9.90
2022-12-22T10:58:54.355Z,10.00
2022-12-22T11:00:01.547Z,10.00
2022-12-22T11:01:04.845Z,10.00
2022-12-22T11:02:22.608Z,10.00
2022-12-22T11:03:29.836Z,10.00
2022-12-22T11:04:31.940Z,10.00
2022-12-22T11:05:34.016Z,10.00
2022-12-22T11:06:35.658Z,9.90
2022-12-22T11:07:39.983Z,9.90
2022-12-22T11:08:49.172Z,9.90
2022-12-22T11:09:54.482Z,9.90
2022-12-22T11:11:05.789Z,9.90
2022-12-22T11:12:28.768Z,10.00
2022-12-22T11:13:35.151Z,10.00
2022-12-22T11:15:00.761Z,10.00
2022-12-22T11:16:34.685Z,10.00
2022-12-22T11:17:47.479Z,10.00
2022-12-22T11:18:59.662Z,10.00
2022-12-22T11:20:29.414Z,10.00
2022-12-22T11:21:44.566Z,10.00
2022-12-22T11:23:09.233Z,10.00
2022-12-22T11:24:41.229Z,9.90
2022-12-22T11:26:05.379Z,10.00
2022-12-22T11:27:28.803Z,10.00
2022-12-22T11:29:03.521Z,9.90
2022-12-22T11:30:20.536Z,10.00
2022-12-22T11:31:52.025Z,9.90
2022-12-22T11:33:21.265Z,9.90
2022-12-22T11:34:51.800Z,9.90
2022-12-22T11:36:05.528Z,10.00
2022-12-22T11:37:24.474Z,9.90
2022-12-22T11:38:47.525Z,9.90
2022-12-22T11:40:09.306Z,9.90
2022-12-22T11:41:14.972Z,9.90
2022-12-22T11:42:54.920Z,9.90
2022-12-22T11:44:19.114Z,9.90
2022-12-22T11:45:43.390Z,10.00
2022-12-22T11:46:50.818Z,9.90
2022-12-22T11:48:11.435Z,9.90
2022-12-22T11:49:44.519Z,10.00
2022-12-22T11:50:58.555Z,10.00
2022-12-22T11:52:11.794Z,10.00
2022-12-22T11:53:20.178Z,10.00
2022-12-22T11:54:39.734Z,10.00
2022-12-22T11:55:52.426Z,10.00
2022-12-22T11:57:12.937Z,10.00
2022-12-22T11:58:44.618Z,10.10
2022-12-22T11:59:59.644Z,10.10
2022-12-22T12:13:28.863Z,10.40
2022-12-22T12:18:46.213Z,10.40
2022-12-22T12:20:25.711Z,10.30
2022-12-22T12:21:28.763Z,10.30
2022-12-22T12:22:53.471Z,10.30
2022-12-22T12:24:31.634Z,10.20
2022-12-22T12:26:04.692Z,10.20
2022-12-22T12:27:32.382Z,10.30
2022-12-22T12:29:02.687Z,10.30
2022-12-22T12:30:38.580Z,10.30
2022-12-22T12:31:47.944Z,10.30
2022-12-22T12:32:59.967Z,10.20
2022-12-22T12:34:03.684Z,10.20
2022-12-22T12:35:21.921Z,10.20
2022-12-22T12:36:42.426Z,10.20
2022-12-22T12:37:49.602Z,10.20
2022-12-22T12:39:07.486Z,10.20
2022-12-22T12:40:40.015Z,10.20
2022-12-22T12:42:09.131Z,10.20
2022-12-22T12:43:16.522Z,10.10
2022-12-22T12:44:23.158Z,10.00
2022-12-22T12:45:44.196Z,10.10
2022-12-22T12:46:52.413Z,10.10
2022-12-22T12:48:00.747Z,10.00
2022-12-22T12:49:02.361Z,10.10
2022-12-22T12:50:33.861Z,10.10
2022-12-22T12:51:50.342Z,10.10
2022-12-22T12:52:51.882Z,10.00
2022-12-22T12:54:23.242Z,10.10
2022-12-22T12:55:32.568Z,10.10
2022-12-22T12:57:06.704Z,10.10
2022-12-22T12:58:32.779Z,10.10
2022-12-22T12:59:57.035Z,10.10
2022-12-22T13:00:59.356Z,10.00
2022-12-22T13:02:01.735Z,10.00
2022-12-22T13:03:25.080Z,10.00
2022-12-22T13:05:13.047Z,10.00
2022-12-22T13:06:51.343Z,10.00
2022-12-22T13:08:16.135Z,10.00
2022-12-22T13:09:49.180Z,10.00
2022-12-22T13:10:44.851Z,10.00
2022-12-22T13:12:12.360Z,10.00
2022-12-22T13:13:13.452Z,10.00
2022-12-22T13:14:53.479Z,10.00
2022-12-22T13:16:00.965Z,10.10
2022-12-22T13:17:33.236Z,10.10
2022-12-22T13:18:34.822Z,10.10
2022-12-22T13:19:36.762Z,10.10
2022-12-22T13:20:38.794Z,10.10
2022-12-22T13:21:54.410Z,10.10
2022-12-22T13:22:59.152Z,10.10
2022-12-22T13:24:26.227Z,10.00
2022-12-22T13:25:59.042Z,10.10
2022-12-22T13:27:04.679Z,10.00
2022-12-22T13:28:10.292Z,10.10
2022-12-22T13:29:27.268Z,10.00
2022-12-22T13:30:30.328Z,10.00
2022-12-22T13:31:36.296Z,10.00
2022-12-22T13:32:41.154Z,10.00
2022-12-22T13:33:44.781Z,10.00
2022-12-22T13:35:20.652Z,9.90
2022-12-22T13:36:19.847Z,9.90
2022-12-22T13:37:25.654Z,9.90
2022-12-22T13:38:32.717Z,9.90
2022-12-22T13:39:34.260Z,9.90
2022-12-22T13:40:43.919Z,9.90
2022-12-22T13:41:48.237Z,9.90
2022-12-22T13:42:52.831Z,9.90
2022-12-22T13:44:04.313Z,9.90
2022-12-22T13:45:12.944Z,9.90
2022-12-22T13:46:14.612Z,9.90
2022-12-22T13:47:16.405Z,9.80
2022-12-22T13:48:44.122Z,9.80
2022-12-22T13:50:08.389Z,9.80
2022-12-22T13:51:21.154Z,9.80
2022-12-22T13:52:23.617Z,9.80
2022-12-22T13:54:06.999Z,9.80
2022-12-22T13:55:00.827Z,9.80
2022-12-22T13:56:05.151Z,9.80
2022-12-22T13:57:20.763Z,9.80
2022-12-22T13:58:27.723Z,9.80
2022-12-22T13:59:40.443Z,9.80
2022-12-22T14:00:42.180Z,9.80
2022-12-22T14:01:58.607Z,9.80
2022-12-22T14:03:00.871Z,9.80
2022-12-22T14:04:07.629Z,9.80
2022-12-22T14:05:12.127Z,9.80
2022-12-22T14:06:32.098Z,9.80
2022-12-22T14:07:33.705Z,9.80
2022-12-22T14:08:35.282Z,9.80
2022-12-22T14:09:36.830Z,9.80
2022-12-22T14:10:42.514Z,9.80
2022-12-22T14:11:52.128Z,9.80
2022-12-22T14:12:54.592Z,9.90
2022-12-22T14:13:56.247Z,9.90
2022-12-22T14:15:01.188Z,9.90
2022-12-22T14:16:05.362Z,9.80
2022-12-22T14:17:31.916Z,9.80
2022-12-22T14:18:33.832Z,9.80
2022-12-22T14:19:37.988Z,9.80
2022-12-22T14:20:40.226Z,9.80
2022-12-22T14:21:44.745Z,9.80
2022-12-22T14:22:53.635Z,9.90
2022-12-22T14:23:55.251Z,9.90
2022-12-22T14:25:01.327Z,9.80
2022-12-22T14:26:05.965Z,9.80
2022-12-22T14:27:23.093Z,9.80
2022-12-22T14:28:50.915Z,9.80
2022-12-22T14:29:52.798Z,9.80
2022-12-22T14:30:58.430Z,9.80
2022-12-22T14:32:02.754Z,9.70
2022-12-22T14:33:27.772Z,9.80
2022-12-22T14:34:32.383Z,9.80
2022-12-22T14:35:34.139Z,9.70
2022-12-22T14:36:40.708Z,9.60
2022-12-22T14:37:42.493Z,9.60
2022-12-22T14:38:47.576Z,9.70
2022-12-22T14:39:55.699Z,9.70
2022-12-22T14:40:58.079Z,9.70
2022-12-22T14:42:04.855Z,9.70
2022-12-22T14:43:25.667Z,9.70
2022-12-22T14:44:37.637Z,9.60
2022-12-22T14:45:39.227Z,9.60
2022-12-22T14:46:42.993Z,9.60
2022-12-22T14:47:44.712Z,9.50
2022-12-22T14:48:47.368Z,9.50
2022-12-22T14:49:56.761Z,9.50
2022-12-22T14:50:58.662Z,9.50
2022-12-22T14:52:07.537Z,9.50
2022-12-22T14:53:14.291Z,9.50
2022-12-22T14:54:21.418Z,9.60
2022-12-22T14:55:38.860Z,9.50
2022-12-22T14:56:49.120Z,9.50
2022-12-22T14:57:54.640Z,9.50
2022-12-22T14:59:11.292Z,9.40
2022-12-22T15:00:21.930Z,9.40
2022-12-22T15:01:28.100Z,9.40
2022-12-22T15:02:39.037Z,9.40
2022-12-22T15:03:42.739Z,9.40
2022-12-22T15:04:44.364Z,9.40
2022-12-22T15:05:46.069Z,9.40
2022-12-22T15:06:49.271Z,9.40
2022-12-22T15:08:09.666Z,9.40
2022-12-22T15:09:14.456Z,9.40
2022-12-22T15:10:17.065Z,9.30
2022-12-22T15:11:21.917Z,9.40
2022-12-22T15:12:23.617Z,9.40
2022-12-22T15:13:25.379Z,9.40
2022-12-22T15:14:36.730Z,9.40
2022-12-22T15:15:40.665Z,9.30
2022-12-22T15:16:43.076Z,9.40
2022-12-22T15:17:49.578Z,9.40
2022-12-22T15:18:53.077Z,9.30
2022-12-22T15:19:59.034Z,9.30
2022-12-22T15:21:02.776Z,9.30
2022-12-22T15:22:07.950Z,9.40
2022-12-22T15:23:14.689Z,9.30
2022-12-22T15:24:17.831Z,9.30
2022-12-22T15:25:23.172Z,9.30
2022-12-22T15:26:24.857Z,9.30
2022-12-22T15:27:26.438Z,9.40
2022-12-22T15:28:28.031Z,9.30
2022-12-22T15:29:29.677Z,9.30
2022-12-22T15:30:31.415Z,9.30
2022-12-22T15:31:33.310Z,9.30
2022-12-22T15:32:38.028Z,9.30
2022-12-22T15:33:40.128Z,9.30
2022-12-22T15:34:42.314Z,9.20
2022-12-22T15:35:44.820Z,9.20
2022-12-22T15:36:46.511Z,9.20
2022-12-22T15:37:48.437Z,9.20
2022-12-22T15:38:51.088Z,9.10
2022-12-22T15:39:52.724Z,9.10
2022-12-22T15:40:54.363Z,9.10
2022-12-22T15:41:56.214Z,9.10
2022-12-22T15:42:57.793Z,9.00
2022-12-22T15:43:59.805Z,9.00
2022-12-22T15:45:01.552Z,9.10
2022-12-22T15:46:06.773Z,9.10